sensor_id;sensor_type;location;lat;lon;timestamp;temperature;humidity
24678;DHT22;12800;53.094;8.778;2023-02-02T00:00:05;7.60;79.80
24678;DHT22;12800;53.094;8.778;2023-02-02T00:02:31;7.60;79.80
24678;DHT22;12800;53.094;8.778;2023-02-02T00:04:57;7.60;79.80
24678;DHT22;12800;53.094;8.778;2023-02-02T00:07:23;7.60;79.80
24678;DHT22;12800;53.094;8.778;2023-02-02T00:09:48;7.60;79.90
24678;DHT22;12800;53.094;8.778;2023-02-02T00:12:14;7.60;79.90
24678;DHT22;12800;53.094;8.778;2023-02-02T00:14:40;7.60;79.80
24678;DHT22;12800;53.094;8.778;2023-02-02T00:17:08;7.60;80.00
24678;DHT22;12800;53.094;8.778;2023-02-02T00:19:34;7.60;80.00
24678;DHT22;12800;53.094;8.778;2023-02-02T00:22:00;7.60;79.90
24678;DHT22;12800;53.094;8.778;2023-02-02T00:24:26;7.60;79.80
24678;DHT22;12800;53.094;8.778;2023-02-02T00:26:56;7.60;79.80
24678;DHT22;12800;53.094;8.778;2023-02-02T00:29:24;7.60;79.60
24678;DHT22;12800;53.094;8.778;2023-02-02T00:31:51;7.60;79.50
24678;DHT22;12800;53.094;8.778;2023-02-02T00:34:17;7.60;79.50
24678;DHT22;12800;53.094;8.778;2023-02-02T00:36:43;7.60;79.30
24678;DHT22;12800;53.094;8.778;2023-02-02T00:39:16;7.60;79.30
24678;DHT22;12800;53.094;8.778;2023-02-02T00:41:42;7.60;79.30
24678;DHT22;12800;53.094;8.778;2023-02-02T00:44:08;7.50;79.30
24678;DHT22;12800;53.094;8.778;2023-02-02T00:46:52;7.50;79.30
24678;DHT22;12800;53.094;8.778;2023-02-02T00:49:18;7.50;79.60
24678;DHT22;12800;53.094;8.778;2023-02-02T00:51:44;7.50;79.70
24678;DHT22;12800;53.094;8.778;2023-02-02T00:54:09;7.40;79.90
24678;DHT22;12800;53.094;8.778;2023-02-02T00:56:35;7.40;79.90
24678;DHT22;12800;53.094;8.778;2023-02-02T00:59:01;7.30;80.00
24678;DHT22;12800;53.094;8.778;2023-02-02T01:01:27;7.30;80.10
24678;DHT22;12800;53.094;8.778;2023-02-02T01:03:53;7.30;80.30
24678;DHT22;12800;53.094;8.778;2023-02-02T01:06:18;7.30;80.50
24678;DHT22;12800;53.094;8.778;2023-02-02T01:08:44;7.30;80.50
24678;DHT22;12800;53.094;8.778;2023-02-02T01:11:10;7.30;80.50
24678;DHT22;12800;53.094;8.778;2023-02-02T01:13:35;7.20;80.70
24678;DHT22;12800;53.094;8.778;2023-02-02T01:16:02;7.20;80.90
24678;DHT22;12800;53.094;8.778;2023-02-02T01:18:28;7.10;80.80
24678;DHT22;12800;53.094;8.778;2023-02-02T01:21:05;7.10;81.00
24678;DHT22;12800;53.094;8.778;2023-02-02T01:23:31;7.00;81.20
24678;DHT22;12800;53.094;8.778;2023-02-02T01:25:59;7.00;81.40
24678;DHT22;12800;53.094;8.778;2023-02-02T01:28:26;7.00;82.30
24678;DHT22;12800;53.094;8.778;2023-02-02T01:30:51;7.00;81.60
24678;DHT22;12800;53.094;8.778;2023-02-02T01:33:18;7.00;81.70
24678;DHT22;12800;53.094;8.778;2023-02-02T01:35:50;7.00;81.80
24678;DHT22;12800;53.094;8.778;2023-02-02T01:38:16;7.00;82.00
24678;DHT22;12800;53.094;8.778;2023-02-02T01:41:00;7.00;82.90
24678;DHT22;12800;53.094;8.778;2023-02-02T01:43:50;7.00;82.20
24678;DHT22;12800;53.094;8.778;2023-02-02T01:46:36;7.00;82.20
24678;DHT22;12800;53.094;8.778;2023-02-02T01:49:15;7.00;82.40
24678;DHT22;12800;53.094;8.778;2023-02-02T01:51:47;7.00;82.40
24678;DHT22;12800;53.094;8.778;2023-02-02T01:54:31;7.00;82.50
24678;DHT22;12800;53.094;8.778;2023-02-02T01:57:07;7.00;82.50
24678;DHT22;12800;53.094;8.778;2023-02-02T01:59:33;7.00;82.50
24678;DHT22;12800;53.094;8.778;2023-02-02T02:02:01;7.10;82.50
24678;DHT22;12800;53.094;8.778;2023-02-02T02:04:28;7.10;82.60
24678;DHT22;12800;53.094;8.778;2023-02-02T02:06:55;7.10;82.60
24678;DHT22;12800;53.094;8.778;2023-02-02T02:09:21;7.10;82.50
24678;DHT22;12800;53.094;8.778;2023-02-02T02:11:46;7.10;82.50
24678;DHT22;12800;53.094;8.778;2023-02-02T02:14:14;7.10;82.50
24678;DHT22;12800;53.094;8.778;2023-02-02T02:37:15;7.00;82.40
24678;DHT22;12800;53.094;8.778;2023-02-02T02:39:55;7.00;83.20
24678;DHT22;12800;53.094;8.778;2023-02-02T02:42:25;7.10;82.60
24678;DHT22;12800;53.094;8.778;2023-02-02T02:44:54;7.10;82.70
24678;DHT22;12800;53.094;8.778;2023-02-02T02:47:21;7.00;82.70
24678;DHT22;12800;53.094;8.778;2023-02-02T02:49:48;7.00;82.90
24678;DHT22;12800;53.094;8.778;2023-02-02T02:52:14;7.00;83.00
24678;DHT22;12800;53.094;8.778;2023-02-02T02:54:44;7.10;83.10
24678;DHT22;12800;53.094;8.778;2023-02-02T03:08:23;7.10;83.50
24678;DHT22;12800;53.094;8.778;2023-02-02T03:10:49;7.10;83.50
24678;DHT22;12800;53.094;8.778;2023-02-02T03:13:16;7.10;83.50
24678;DHT22;12800;53.094;8.778;2023-02-02T03:15:42;7.10;83.50
24678;DHT22;12800;53.094;8.778;2023-02-02T03:18:10;7.10;83.50
24678;DHT22;12800;53.094;8.778;2023-02-02T03:20:36;7.10;83.50
24678;DHT22;12800;53.094;8.778;2023-02-02T03:23:02;7.10;83.50
24678;DHT22;12800;53.094;8.778;2023-02-02T03:25:27;7.20;83.50
24678;DHT22;12800;53.094;8.778;2023-02-02T03:27:53;7.10;83.30
24678;DHT22;12800;53.094;8.778;2023-02-02T03:30:19;7.10;83.30
24678;DHT22;12800;53.094;8.778;2023-02-02T03:32:45;7.10;83.30
24678;DHT22;12800;53.094;8.778;2023-02-02T03:35:11;7.10;83.20
24678;DHT22;12800;53.094;8.778;2023-02-02T03:37:37;7.00;83.30
24678;DHT22;12800;53.094;8.778;2023-02-02T03:40:04;7.00;83.20
24678;DHT22;12800;53.094;8.778;2023-02-02T03:42:30;7.00;83.30
24678;DHT22;12800;53.094;8.778;2023-02-02T03:44:55;6.90;83.40
24678;DHT22;12800;53.094;8.778;2023-02-02T03:47:21;6.90;83.50
24678;DHT22;12800;53.094;8.778;2023-02-02T03:49:46;6.90;83.60
24678;DHT22;12800;53.094;8.778;2023-02-02T03:52:12;6.90;83.70
24678;DHT22;12800;53.094;8.778;2023-02-02T03:54:38;6.90;83.70
24678;DHT22;12800;53.094;8.778;2023-02-02T03:57:04;6.90;83.70
24678;DHT22;12800;53.094;8.778;2023-02-02T03:59:29;6.90;83.70
24678;DHT22;12800;53.094;8.778;2023-02-02T04:01:55;6.80;83.70
24678;DHT22;12800;53.094;8.778;2023-02-02T04:04:20;6.80;83.70
24678;DHT22;12800;53.094;8.778;2023-02-02T04:06:46;6.80;83.80
24678;DHT22;12800;53.094;8.778;2023-02-02T04:09:12;6.80;83.90
24678;DHT22;12800;53.094;8.778;2023-02-02T04:11:37;6.70;83.90
24678;DHT22;12800;53.094;8.778;2023-02-02T04:14:03;6.70;83.90
24678;DHT22;12800;53.094;8.778;2023-02-02T04:16:28;6.70;83.90
24678;DHT22;12800;53.094;8.778;2023-02-02T04:18:59;6.70;84.00
24678;DHT22;12800;53.094;8.778;2023-02-02T04:21:24;6.70;84.00
24678;DHT22;12800;53.094;8.778;2023-02-02T04:23:50;6.60;84.00
24678;DHT22;12800;53.094;8.778;2023-02-02T04:26:16;6.60;84.00
24678;DHT22;12800;53.094;8.778;2023-02-02T04:28:41;6.60;84.00
24678;DHT22;12800;53.094;8.778;2023-02-02T04:31:07;6.50;84.10
24678;DHT22;12800;53.094;8.778;2023-02-02T04:33:33;6.60;84.30
24678;DHT22;12800;53.094;8.778;2023-02-02T04:35:59;6.60;84.30
24678;DHT22;12800;53.094;8.778;2023-02-02T04:38:25;6.50;84.30
24678;DHT22;12800;53.094;8.778;2023-02-02T04:40:50;6.60;84.30
24678;DHT22;12800;53.094;8.778;2023-02-02T04:43:16;6.50;84.30
24678;DHT22;12800;53.094;8.778;2023-02-02T04:45:42;6.50;84.30
24678;DHT22;12800;53.094;8.778;2023-02-02T04:48:08;6.50;84.40
24678;DHT22;12800;53.094;8.778;2023-02-02T04:50:34;6.50;84.30
24678;DHT22;12800;53.094;8.778;2023-02-02T04:52:59;6.50;84.40
24678;DHT22;12800;53.094;8.778;2023-02-02T04:55:25;6.50;84.40
24678;DHT22;12800;53.094;8.778;2023-02-02T04:57:50;6.50;84.30
24678;DHT22;12800;53.094;8.778;2023-02-02T05:00:16;6.50;84.40
24678;DHT22;12800;53.094;8.778;2023-02-02T05:02:42;6.50;84.40
24678;DHT22;12800;53.094;8.778;2023-02-02T05:05:11;6.50;84.40
24678;DHT22;12800;53.094;8.778;2023-02-02T05:07:37;6.50;85.10
24678;DHT22;12800;53.094;8.778;2023-02-02T05:10:05;6.50;84.40
24678;DHT22;12800;53.094;8.778;2023-02-02T05:12:31;6.50;84.50
24678;DHT22;12800;53.094;8.778;2023-02-02T05:14:56;6.50;84.40
24678;DHT22;12800;53.094;8.778;2023-02-02T05:17:25;6.50;84.40
24678;DHT22;12800;53.094;8.778;2023-02-02T05:19:51;6.50;85.10
24678;DHT22;12800;53.094;8.778;2023-02-02T05:22:16;6.50;84.40
24678;DHT22;12800;53.094;8.778;2023-02-02T05:24:42;6.50;84.40
24678;DHT22;12800;53.094;8.778;2023-02-02T05:27:08;6.50;84.50
24678;DHT22;12800;53.094;8.778;2023-02-02T05:29:33;6.50;84.40
24678;DHT22;12800;53.094;8.778;2023-02-02T05:31:59;6.50;84.40
24678;DHT22;12800;53.094;8.778;2023-02-02T05:34:24;6.50;84.30
24678;DHT22;12800;53.094;8.778;2023-02-02T05:36:50;6.50;84.30
24678;DHT22;12800;53.094;8.778;2023-02-02T05:39:17;6.50;84.30
24678;DHT22;12800;53.094;8.778;2023-02-02T05:41:43;6.50;84.40
24678;DHT22;12800;53.094;8.778;2023-02-02T05:44:11;6.40;84.40
24678;DHT22;12800;53.094;8.778;2023-02-02T05:46:37;6.40;84.50
24678;DHT22;12800;53.094;8.778;2023-02-02T05:49:02;6.40;84.60
24678;DHT22;12800;53.094;8.778;2023-02-02T05:51:37;6.40;84.70
24678;DHT22;12800;53.094;8.778;2023-02-02T05:54:05;6.40;84.80
24678;DHT22;12800;53.094;8.778;2023-02-02T05:56:30;6.30;84.80
24678;DHT22;12800;53.094;8.778;2023-02-02T05:58:56;6.30;85.00
24678;DHT22;12800;53.094;8.778;2023-02-02T06:01:21;6.30;85.00
24678;DHT22;12800;53.094;8.778;2023-02-02T06:03:47;6.30;85.10
24678;DHT22;12800;53.094;8.778;2023-02-02T06:06:13;6.30;85.30
24678;DHT22;12800;53.094;8.778;2023-02-02T06:08:39;6.30;85.40
24678;DHT22;12800;53.094;8.778;2023-02-02T06:11:12;6.30;85.40
24678;DHT22;12800;53.094;8.778;2023-02-02T06:13:38;6.30;85.50
24678;DHT22;12800;53.094;8.778;2023-02-02T06:16:04;6.30;85.70
24678;DHT22;12800;53.094;8.778;2023-02-02T06:18:30;6.30;85.70
24678;DHT22;12800;53.094;8.778;2023-02-02T06:20:59;6.30;85.80
24678;DHT22;12800;53.094;8.778;2023-02-02T06:23:26;6.30;85.90
24678;DHT22;12800;53.094;8.778;2023-02-02T06:25:52;6.30;86.00
24678;DHT22;12800;53.094;8.778;2023-02-02T06:28:17;6.30;86.00
24678;DHT22;12800;53.094;8.778;2023-02-02T06:30:43;6.30;86.10
24678;DHT22;12800;53.094;8.778;2023-02-02T06:33:09;6.30;86.30
24678;DHT22;12800;53.094;8.778;2023-02-02T06:35:35;6.30;86.30
24678;DHT22;12800;53.094;8.778;2023-02-02T06:38:00;6.30;86.40
24678;DHT22;12800;53.094;8.778;2023-02-02T06:40:27;6.30;86.50
24678;DHT22;12800;53.094;8.778;2023-02-02T06:43:00;6.30;86.60
24678;DHT22;12800;53.094;8.778;2023-02-02T06:45:27;6.40;86.60
24678;DHT22;12800;53.094;8.778;2023-02-02T06:47:55;6.40;86.60
24678;DHT22;12800;53.094;8.778;2023-02-02T06:50:22;6.30;86.60
24678;DHT22;12800;53.094;8.778;2023-02-02T06:52:51;6.30;86.70
24678;DHT22;12800;53.094;8.778;2023-02-02T06:55:17;6.30;86.80
24678;DHT22;12800;53.094;8.778;2023-02-02T06:57:43;6.30;86.80
24678;DHT22;12800;53.094;8.778;2023-02-02T07:00:10;6.40;86.90
24678;DHT22;12800;53.094;8.778;2023-02-02T07:02:36;6.40;87.00
24678;DHT22;12800;53.094;8.778;2023-02-02T07:05:02;6.40;87.10
24678;DHT22;12800;53.094;8.778;2023-02-02T07:07:31;6.40;87.10
24678;DHT22;12800;53.094;8.778;2023-02-02T07:09:57;6.40;87.10
24678;DHT22;12800;53.094;8.778;2023-02-02T07:12:23;6.40;87.20
24678;DHT22;12800;53.094;8.778;2023-02-02T07:14:49;6.40;88.00
24678;DHT22;12800;53.094;8.778;2023-02-02T07:17:15;6.40;87.30
24678;DHT22;12800;53.094;8.778;2023-02-02T07:19:40;6.40;87.30
24678;DHT22;12800;53.094;8.778;2023-02-02T07:22:06;6.40;87.40
24678;DHT22;12800;53.094;8.778;2023-02-02T07:24:32;6.40;87.40
24678;DHT22;12800;53.094;8.778;2023-02-02T07:26:57;6.40;87.50
24678;DHT22;12800;53.094;8.778;2023-02-02T07:29:23;6.40;87.60
24678;DHT22;12800;53.094;8.778;2023-02-02T07:31:48;6.40;87.70
24678;DHT22;12800;53.094;8.778;2023-02-02T07:34:14;6.40;87.80
24678;DHT22;12800;53.094;8.778;2023-02-02T07:36:40;6.40;87.80
24678;DHT22;12800;53.094;8.778;2023-02-02T07:39:06;6.40;87.90
24678;DHT22;12800;53.094;8.778;2023-02-02T07:41:34;6.50;88.00
24678;DHT22;12800;53.094;8.778;2023-02-02T07:44:00;6.50;88.00
24678;DHT22;12800;53.094;8.778;2023-02-02T07:46:26;6.50;88.00
24678;DHT22;12800;53.094;8.778;2023-02-02T07:48:53;6.50;88.00
24678;DHT22;12800;53.094;8.778;2023-02-02T07:51:22;6.50;88.00
24678;DHT22;12800;53.094;8.778;2023-02-02T07:53:50;6.60;88.20
24678;DHT22;12800;53.094;8.778;2023-02-02T07:56:24;6.60;88.90
24678;DHT22;12800;53.094;8.778;2023-02-02T07:58:51;6.60;88.10
24678;DHT22;12800;53.094;8.778;2023-02-02T08:01:17;6.60;88.10
24678;DHT22;12800;53.094;8.778;2023-02-02T08:03:45;6.60;88.20
24678;DHT22;12800;53.094;8.778;2023-02-02T08:06:17;6.60;88.20
24678;DHT22;12800;53.094;8.778;2023-02-02T08:08:43;6.70;88.20
24678;DHT22;12800;53.094;8.778;2023-02-02T08:11:11;6.70;88.20
24678;DHT22;12800;53.094;8.778;2023-02-02T08:13:37;6.70;88.20
24678;DHT22;12800;53.094;8.778;2023-02-02T08:16:03;6.70;88.10
24678;DHT22;12800;53.094;8.778;2023-02-02T08:18:29;6.70;88.00
24678;DHT22;12800;53.094;8.778;2023-02-02T08:20:57;6.70;88.10
24678;DHT22;12800;53.094;8.778;2023-02-02T08:23:23;6.70;88.10
24678;DHT22;12800;53.094;8.778;2023-02-02T08:25:49;6.80;88.10
24678;DHT22;12800;53.094;8.778;2023-02-02T08:28:16;6.80;88.10
24678;DHT22;12800;53.094;8.778;2023-02-02T08:30:41;6.80;88.00
24678;DHT22;12800;53.094;8.778;2023-02-02T08:33:07;6.90;87.90
24678;DHT22;12800;53.094;8.778;2023-02-02T08:35:32;6.90;87.80
24678;DHT22;12800;53.094;8.778;2023-02-02T08:37:58;6.90;87.70
24678;DHT22;12800;53.094;8.778;2023-02-02T08:40:27;6.90;87.80
24678;DHT22;12800;53.094;8.778;2023-02-02T08:42:53;6.90;87.70
24678;DHT22;12800;53.094;8.778;2023-02-02T08:45:19;6.90;87.70
24678;DHT22;12800;53.094;8.778;2023-02-02T08:47:45;6.90;87.70
24678;DHT22;12800;53.094;8.778;2023-02-02T08:50:11;7.00;87.70
24678;DHT22;12800;53.094;8.778;2023-02-02T08:52:36;7.00;87.70
24678;DHT22;12800;53.094;8.778;2023-02-02T08:55:02;7.00;87.60
24678;DHT22;12800;53.094;8.778;2023-02-02T08:57:28;7.00;87.70
24678;DHT22;12800;53.094;8.778;2023-02-02T08:59:57;7.00;87.60
24678;DHT22;12800;53.094;8.778;2023-02-02T09:02:22;7.10;87.60
24678;DHT22;12800;53.094;8.778;2023-02-02T09:04:48;7.10;87.60
24678;DHT22;12800;53.094;8.778;2023-02-02T09:07:14;7.20;87.70
24678;DHT22;12800;53.094;8.778;2023-02-02T09:09:39;7.20;87.60
24678;DHT22;12800;53.094;8.778;2023-02-02T09:12:05;7.30;87.60
24678;DHT22;12800;53.094;8.778;2023-02-02T09:14:31;7.30;87.60
24678;DHT22;12800;53.094;8.778;2023-02-02T09:16:56;7.40;87.60
24678;DHT22;12800;53.094;8.778;2023-02-02T09:19:22;7.50;87.60
24678;DHT22;12800;53.094;8.778;2023-02-02T09:21:51;7.50;87.50
24678;DHT22;12800;53.094;8.778;2023-02-02T09:24:16;7.60;87.30
24678;DHT22;12800;53.094;8.778;2023-02-02T09:26:43;7.60;87.20
24678;DHT22;12800;53.094;8.778;2023-02-02T09:29:11;7.60;87.10
24678;DHT22;12800;53.094;8.778;2023-02-02T09:31:37;7.60;87.00
24678;DHT22;12800;53.094;8.778;2023-02-02T09:34:09;7.70;87.00
24678;DHT22;12800;53.094;8.778;2023-02-02T09:36:36;7.70;86.90
24678;DHT22;12800;53.094;8.778;2023-02-02T09:39:02;7.70;86.90
24678;DHT22;12800;53.094;8.778;2023-02-02T09:49:12;7.60;86.70
24678;DHT22;12800;53.094;8.778;2023-02-02T09:51:43;7.60;86.70
24678;DHT22;12800;53.094;8.778;2023-02-02T09:54:32;7.60;86.70
24678;DHT22;12800;53.094;8.778;2023-02-02T09:57:01;7.70;86.80
24678;DHT22;12800;53.094;8.778;2023-02-02T09:59:33;7.70;86.80
24678;DHT22;12800;53.094;8.778;2023-02-02T10:02:10;7.70;86.60
24678;DHT22;12800;53.094;8.778;2023-02-02T10:04:39;7.70;86.40
24678;DHT22;12800;53.094;8.778;2023-02-02T10:07:13;7.70;86.30
24678;DHT22;12800;53.094;8.778;2023-02-02T10:14:57;7.70;86.40
24678;DHT22;12800;53.094;8.778;2023-02-02T10:17:56;7.70;86.50
24678;DHT22;12800;53.094;8.778;2023-02-02T10:20:43;7.80;86.50
24678;DHT22;12800;53.094;8.778;2023-02-02T10:23:30;7.80;86.30
24678;DHT22;12800;53.094;8.778;2023-02-02T10:36:57;7.90;86.30
24678;DHT22;12800;53.094;8.778;2023-02-02T10:44:55;8.00;85.90
24678;DHT22;12800;53.094;8.778;2023-02-02T10:47:31;8.00;85.90
24678;DHT22;12800;53.094;8.778;2023-02-02T10:50:13;8.00;85.80
24678;DHT22;12800;53.094;8.778;2023-02-02T10:52:46;8.00;85.80
24678;DHT22;12800;53.094;8.778;2023-02-02T11:02:48;8.00;85.90
24678;DHT22;12800;53.094;8.778;2023-02-02T11:05:23;8.10;86.10
24678;DHT22;12800;53.094;8.778;2023-02-02T11:10:54;8.20;86.00
24678;DHT22;12800;53.094;8.778;2023-02-02T11:13:27;8.20;85.90
24678;DHT22;12800;53.094;8.778;2023-02-02T11:18:42;8.20;85.70
24678;DHT22;12800;53.094;8.778;2023-02-02T11:21:28;8.20;85.80
24678;DHT22;12800;53.094;8.778;2023-02-02T11:26:39;8.20;85.90
24678;DHT22;12800;53.094;8.778;2023-02-02T11:29:13;8.20;86.10
24678;DHT22;12800;53.094;8.778;2023-02-02T11:31:39;8.20;86.10
24678;DHT22;12800;53.094;8.778;2023-02-02T11:34:22;8.20;86.30
24678;DHT22;12800;53.094;8.778;2023-02-02T11:39:35;8.30;86.30
24678;DHT22;12800;53.094;8.778;2023-02-02T11:42:12;8.30;86.30
24678;DHT22;12800;53.094;8.778;2023-02-02T11:45:03;8.40;86.30
24678;DHT22;12800;53.094;8.778;2023-02-02T11:47:31;8.40;86.10
24678;DHT22;12800;53.094;8.778;2023-02-02T11:50:00;8.40;86.00
24678;DHT22;12800;53.094;8.778;2023-02-02T11:52:28;8.50;86.10
24678;DHT22;12800;53.094;8.778;2023-02-02T11:55:00;8.50;86.00
24678;DHT22;12800;53.094;8.778;2023-02-02T11:57:27;8.50;86.00
24678;DHT22;12800;53.094;8.778;2023-02-02T12:00:16;8.60;86.00
24678;DHT22;12800;53.094;8.778;2023-02-02T12:02:47;8.60;86.00
24678;DHT22;12800;53.094;8.778;2023-02-02T12:05:32;8.70;86.00
24678;DHT22;12800;53.094;8.778;2023-02-02T12:07:58;8.70;85.90
24678;DHT22;12800;53.094;8.778;2023-02-02T12:13:22;8.80;85.80
24678;DHT22;12800;53.094;8.778;2023-02-02T12:16:11;8.80;85.70
24678;DHT22;12800;53.094;8.778;2023-02-02T12:22:43;8.90;85.70
24678;DHT22;12800;53.094;8.778;2023-02-02T12:24:36;8.90;85.60
24678;DHT22;12800;53.094;8.778;2023-02-02T12:32:44;8.90;85.10
24678;DHT22;12800;53.094;8.778;2023-02-02T12:38:09;8.90;85.30
24678;DHT22;12800;53.094;8.778;2023-02-02T12:43:44;8.90;85.40
24678;DHT22;12800;53.094;8.778;2023-02-02T12:49:20;9.10;85.30
24678;DHT22;12800;53.094;8.778;2023-02-02T12:54:43;9.20;84.90
24678;DHT22;12800;53.094;8.778;2023-02-02T13:08:32;9.40;84.30
24678;DHT22;12800;53.094;8.778;2023-02-02T13:11:04;9.40;84.10
24678;DHT22;12800;53.094;8.778;2023-02-02T13:13:36;9.40;83.80
24678;DHT22;12800;53.094;8.778;2023-02-02T13:16:06;9.40;83.60
24678;DHT22;12800;53.094;8.778;2023-02-02T13:18:47;9.40;83.70
24678;DHT22;12800;53.094;8.778;2023-02-02T13:21:19;9.50;83.70
24678;DHT22;12800;53.094;8.778;2023-02-02T13:23:49;9.50;83.60
24678;DHT22;12800;53.094;8.778;2023-02-02T13:37:41;9.70;82.40
24678;DHT22;12800;53.094;8.778;2023-02-02T13:40:28;9.70;82.10
24678;DHT22;12800;53.094;8.778;2023-02-02T13:51:41;9.60;81.80
24678;DHT22;12800;53.094;8.778;2023-02-02T14:02:43;9.50;81.50
24678;DHT22;12800;53.094;8.778;2023-02-02T14:05:23;9.50;81.60
24678;DHT22;12800;53.094;8.778;2023-02-02T14:07:55;9.50;81.50
24678;DHT22;12800;53.094;8.778;2023-02-02T14:11:04;9.50;81.20
24678;DHT22;12800;53.094;8.778;2023-02-02T14:13:44;9.50;81.10
24678;DHT22;12800;53.094;8.778;2023-02-02T14:18:58;9.50;80.80
24678;DHT22;12800;53.094;8.778;2023-02-02T14:23:58;9.50;80.70
24678;DHT22;12800;53.094;8.778;2023-02-02T14:45:32;9.50;80.30
24678;DHT22;12800;53.094;8.778;2023-02-02T14:50:46;9.50;80.50
24678;DHT22;12800;53.094;8.778;2023-02-02T15:14:41;9.30;80.60
24678;DHT22;12800;53.094;8.778;2023-02-02T15:17:24;9.30;80.60
24678;DHT22;12800;53.094;8.778;2023-02-02T15:22:50;9.20;80.80
24678;DHT22;12800;53.094;8.778;2023-02-02T15:25:22;9.20;80.90
24678;DHT22;12800;53.094;8.778;2023-02-02T15:28:07;9.20;81.00
24678;DHT22;12800;53.094;8.778;2023-02-02T15:30:33;9.20;81.10
24678;DHT22;12800;53.094;8.778;2023-02-02T15:33:06;9.20;81.20
24678;DHT22;12800;53.094;8.778;2023-02-02T15:35:37;9.20;81.30
24678;DHT22;12800;53.094;8.778;2023-02-02T15:38:06;9.10;81.30
24678;DHT22;12800;53.094;8.778;2023-02-02T15:40:36;9.10;81.30
24678;DHT22;12800;53.094;8.778;2023-02-02T15:43:04;9.10;81.40
24678;DHT22;12800;53.094;8.778;2023-02-02T15:45:39;9.10;81.50
24678;DHT22;12800;53.094;8.778;2023-02-02T15:50:50;9.00;81.60
24678;DHT22;12800;53.094;8.778;2023-02-02T15:53:30;9.00;81.70
24678;DHT22;12800;53.094;8.778;2023-02-02T15:55:57;9.00;81.80
24678;DHT22;12800;53.094;8.778;2023-02-02T15:58:30;9.00;82.00
24678;DHT22;12800;53.094;8.778;2023-02-02T16:01:04;9.00;82.10
24678;DHT22;12800;53.094;8.778;2023-02-02T16:06:41;8.90;82.30
24678;DHT22;12800;53.094;8.778;2023-02-02T16:09:31;8.90;82.40
24678;DHT22;12800;53.094;8.778;2023-02-02T16:11:57;8.90;82.50
24678;DHT22;12800;53.094;8.778;2023-02-02T16:14:23;8.90;82.70
24678;DHT22;12800;53.094;8.778;2023-02-02T16:16:49;8.90;82.80
24678;DHT22;12800;53.094;8.778;2023-02-02T16:21:55;8.80;83.00
24678;DHT22;12800;53.094;8.778;2023-02-02T16:24:27;8.80;83.10
24678;DHT22;12800;53.094;8.778;2023-02-02T16:26:57;8.80;83.30
24678;DHT22;12800;53.094;8.778;2023-02-02T16:29:24;8.80;83.30
24678;DHT22;12800;53.094;8.778;2023-02-02T16:31:52;8.80;83.50
24678;DHT22;12800;53.094;8.778;2023-02-02T16:39:54;8.70;83.80
24678;DHT22;12800;53.094;8.778;2023-02-02T16:42:26;8.70;83.90
24678;DHT22;12800;53.094;8.778;2023-02-02T16:44:53;8.70;83.90
24678;DHT22;12800;53.094;8.778;2023-02-02T16:50:22;8.60;84.20
24678;DHT22;12800;53.094;8.778;2023-02-02T16:52:56;8.60;84.40
24678;DHT22;12800;53.094;8.778;2023-02-02T16:55:22;8.60;84.50
24678;DHT22;12800;53.094;8.778;2023-02-02T16:57:49;8.60;84.80
24678;DHT22;12800;53.094;8.778;2023-02-02T17:00:25;8.60;84.80
24678;DHT22;12800;53.094;8.778;2023-02-02T17:02:58;8.60;85.00
24678;DHT22;12800;53.094;8.778;2023-02-02T17:05:29;8.60;85.00
24678;DHT22;12800;53.094;8.778;2023-02-02T17:07:57;8.60;85.20
24678;DHT22;12800;53.094;8.778;2023-02-02T17:10:34;8.60;85.30
24678;DHT22;12800;53.094;8.778;2023-02-02T17:13:01;8.60;85.40
24678;DHT22;12800;53.094;8.778;2023-02-02T17:15:32;8.50;85.50
24678;DHT22;12800;53.094;8.778;2023-02-02T17:17:59;8.50;85.60
24678;DHT22;12800;53.094;8.778;2023-02-02T17:20:25;8.50;85.70
24678;DHT22;12800;53.094;8.778;2023-02-02T17:23:00;8.50;85.70
24678;DHT22;12800;53.094;8.778;2023-02-02T17:25:29;8.50;85.80
24678;DHT22;12800;53.094;8.778;2023-02-02T17:27:56;8.50;85.90
24678;DHT22;12800;53.094;8.778;2023-02-02T17:30:22;8.40;86.00
24678;DHT22;12800;53.094;8.778;2023-02-02T17:32:48;8.40;86.20
24678;DHT22;12800;53.094;8.778;2023-02-02T17:35:25;8.40;86.40
24678;DHT22;12800;53.094;8.778;2023-02-02T17:37:51;8.40;86.40
24678;DHT22;12800;53.094;8.778;2023-02-02T17:40:18;8.30;86.40
24678;DHT22;12800;53.094;8.778;2023-02-02T17:42:47;8.30;86.60
24678;DHT22;12800;53.094;8.778;2023-02-02T17:47:52;8.30;86.70
24678;DHT22;12800;53.094;8.778;2023-02-02T17:50:18;8.30;86.90
24678;DHT22;12800;53.094;8.778;2023-02-02T17:52:46;8.20;86.90
24678;DHT22;12800;53.094;8.778;2023-02-02T17:55:24;8.20;87.00
24678;DHT22;12800;53.094;8.778;2023-02-02T17:57:50;8.20;87.10
24678;DHT22;12800;53.094;8.778;2023-02-02T18:00:18;8.20;87.20
24678;DHT22;12800;53.094;8.778;2023-02-02T18:02:45;8.20;87.40
24678;DHT22;12800;53.094;8.778;2023-02-02T18:05:11;8.10;88.10
24678;DHT22;12800;53.094;8.778;2023-02-02T18:07:38;8.10;87.40
24678;DHT22;12800;53.094;8.778;2023-02-02T18:10:04;8.10;87.40
24678;DHT22;12800;53.094;8.778;2023-02-02T18:12:30;8.10;87.60
24678;DHT22;12800;53.094;8.778;2023-02-02T18:15:06;8.00;87.60
24678;DHT22;12800;53.094;8.778;2023-02-02T18:17:32;8.00;87.80
24678;DHT22;12800;53.094;8.778;2023-02-02T18:19:58;8.00;87.80
24678;DHT22;12800;53.094;8.778;2023-02-02T18:22:24;8.00;87.90
24678;DHT22;12800;53.094;8.778;2023-02-02T18:24:50;8.00;88.00
24678;DHT22;12800;53.094;8.778;2023-02-02T18:27:16;7.90;88.00
24678;DHT22;12800;53.094;8.778;2023-02-02T18:29:45;7.90;88.10
24678;DHT22;12800;53.094;8.778;2023-02-02T18:32:11;7.90;88.20
24678;DHT22;12800;53.094;8.778;2023-02-02T18:34:37;7.90;88.30
24678;DHT22;12800;53.094;8.778;2023-02-02T18:37:03;7.90;88.20
24678;DHT22;12800;53.094;8.778;2023-02-02T18:39:29;7.90;88.30
24678;DHT22;12800;53.094;8.778;2023-02-02T18:41:55;7.90;88.40
24678;DHT22;12800;53.094;8.778;2023-02-02T18:44:21;7.90;88.40
24678;DHT22;12800;53.094;8.778;2023-02-02T18:46:49;7.90;88.50
24678;DHT22;12800;53.094;8.778;2023-02-02T18:49:14;7.90;88.60
24678;DHT22;12800;53.094;8.778;2023-02-02T18:51:40;7.90;88.50
24678;DHT22;12800;53.094;8.778;2023-02-02T18:54:06;7.90;88.50
24678;DHT22;12800;53.094;8.778;2023-02-02T18:56:32;7.90;88.60
24678;DHT22;12800;53.094;8.778;2023-02-02T18:58:58;7.80;88.70
24678;DHT22;12800;53.094;8.778;2023-02-02T19:01:24;7.80;88.70
24678;DHT22;12800;53.094;8.778;2023-02-02T19:03:52;7.80;88.80
24678;DHT22;12800;53.094;8.778;2023-02-02T19:06:19;7.80;88.80
24678;DHT22;12800;53.094;8.778;2023-02-02T19:09:05;7.80;88.80
24678;DHT22;12800;53.094;8.778;2023-02-02T19:11:37;7.80;89.00
24678;DHT22;12800;53.094;8.778;2023-02-02T19:14:32;7.80;89.00
24678;DHT22;12800;53.094;8.778;2023-02-02T19:19:38;7.80;89.20
24678;DHT22;12800;53.094;8.778;2023-02-02T19:22:19;7.80;89.30
24678;DHT22;12800;53.094;8.778;2023-02-02T19:24:46;7.80;89.30
24678;DHT22;12800;53.094;8.778;2023-02-02T19:27:21;7.80;89.30
24678;DHT22;12800;53.094;8.778;2023-02-02T19:29:50;7.80;89.40
24678;DHT22;12800;53.094;8.778;2023-02-02T19:32:18;7.70;89.30